Time;durP1;ratioP1;P1;durP2;ratioP2;P2;SDS_P1;SDS_P2;PMS_P1;PMS_P2;Temp;Humidity;BMP_temperature;BMP_pressure;BME280_temperature;BME280_humidity;BME280_pressure;Samples;Min_cycle;Max_cycle;Signal;HPM_P1;HPM_P2
2021/06/06 00:02:12;;;;;;;10.75;6.18;;;;;;;;;;4992927;28;20028;-66
2021/06/06 00:04:44;;;;;;;13.35;5.75;;;;;;;;;;4986563;28;20030;-66
2021/06/06 00:07:10;;;;;;;8.93;5.07;;;;;;;;;;4987176;28;20037;-66
2021/06/06 00:09:36;;;;;;;9.45;5.18;;;;;;;;;;4987180;28;20030;-66
2021/06/06 00:12:03;;;;;;;12.75;5.30;;;;;;;;;;4986884;28;20038;-66
2021/06/06 00:14:31;;;;;;;11.40;5.63;;;;;;;;;;4988401;28;20026;-67
2021/06/06 00:16:58;;;;;;;10.02;5.10;;;;;;;;;;4985041;28;20026;-66
2021/06/06 00:19:25;;;;;;;10.30;5.78;;;;;;;;;;4986769;28;20026;-66
2021/06/06 00:21:52;;;;;;;12.20;6.72;;;;;;;;;;4985881;28;20030;-66
2021/06/06 00:24:20;;;;;;;9.00;5.43;;;;;;;;;;4987275;28;20015;-67
2021/06/06 00:26:47;;;;;;;10.77;5.78;;;;;;;;;;4987439;28;20050;-66
2021/06/06 00:29:13;;;;;;;10.90;6.40;;;;;;;;;;4981384;28;20023;-66
2021/06/06 00:31:39;;;;;;;14.63;7.60;;;;;;;;;;4988340;28;20026;-66
2021/06/06 00:34:05;;;;;;;12.80;6.82;;;;;;;;;;4985536;28;20544;-67
2021/06/06 00:36:33;;;;;;;11.68;6.35;;;;;;;;;;4990208;28;20026;-66
2021/06/06 00:38:59;;;;;;;11.70;6.72;;;;;;;;;;4999346;28;20028;-66
2021/06/06 00:41:27;;;;;;;13.05;6.65;;;;;;;;;;4987585;28;20022;-66
2021/06/06 00:43:54;;;;;;;13.63;6.93;;;;;;;;;;4994745;28;20083;-66
2021/06/06 00:46:21;;;;;;;12.27;6.85;;;;;;;;;;4996883;28;20023;-67
2021/06/06 00:48:47;;;;;;;14.10;7.45;;;;;;;;;;5000172;28;20061;-66
2021/06/06 00:51:22;;;;;;;11.55;6.53;;;;;;;;;;4987481;28;20052;-66
2021/06/06 00:53:50;;;;;;;13.18;6.25;;;;;;;;;;4988189;28;20080;-66
2021/06/06 00:56:18;;;;;;;12.38;6.43;;;;;;;;;;4989603;28;20038;-66
2021/06/06 00:58:46;;;;;;;14.18;7.47;;;;;;;;;;4986966;28;20026;-66
2021/06/06 01:01:14;;;;;;;10.40;6.50;;;;;;;;;;4989302;28;20078;-66
2021/06/06 01:03:40;;;;;;;14.80;7.70;;;;;;;;;;4986193;28;20038;-66
2021/06/06 01:06:08;;;;;;;12.18;6.85;;;;;;;;;;5015139;28;20052;-66
2021/06/06 01:08:37;;;;;;;14.15;7.43;;;;;;;;;;4984749;28;20041;-66
2021/06/06 01:11:09;;;;;;;12.25;6.43;;;;;;;;;;4989193;28;20602;-66
2021/06/06 01:13:34;;;;;;;;;;;;;;;;;;4988684;28;20038;-67
2021/06/06 01:16:02;;;;;;;16.45;6.88;;;;;;;;;;4989381;28;20303;-66
2021/06/06 01:18:31;;;;;;;15.07;8.88;;;;;;;;;;4987236;28;20401;-66
2021/06/06 01:21:16;;;;;;;12.20;5.97;;;;;;;;;;4995860;28;20058;-66
2021/06/06 01:23:54;;;;;;;11.70;6.97;;;;;;;;;;4989357;28;20209;-66
2021/06/06 01:26:33;;;;;;;15.38;7.80;;;;;;;;;;4986008;28;20038;-66
2021/06/06 01:29:11;;;;;;;15.82;7.30;;;;;;;;;;4986608;28;20562;-66
2021/06/06 01:31:40;;;;;;;13.15;7.22;;;;;;;;;;4985322;28;20501;-66
2021/06/06 01:34:09;;;;;;;13.88;6.80;;;;;;;;;;4986984;28;20034;-67
2021/06/06 01:36:37;;;;;;;14.65;7.25;;;;;;;;;;4985718;28;20056;-67
2021/06/06 01:39:08;;;;;;;12.35;6.78;;;;;;;;;;4986521;28;20649;-66
2021/06/06 01:41:37;;;;;;;16.48;8.45;;;;;;;;;;4985901;28;20023;-66
2021/06/06 01:44:04;;;;;;;13.95;7.53;;;;;;;;;;4988125;28;20187;-66
2021/06/06 01:46:41;;;;;;;12.20;7.18;;;;;;;;;;4986528;28;20026;-66
2021/06/06 01:49:08;;;;;;;13.85;7.20;;;;;;;;;;4987872;28;20033;-66
2021/06/06 01:51:36;;;;;;;11.20;6.07;;;;;;;;;;4985889;28;20021;-66
2021/06/06 01:54:03;;;;;;;14.13;6.63;;;;;;;;;;4987643;28;20497;-66
2021/06/06 01:56:31;;;;;;;13.90;6.90;;;;;;;;;;4997798;28;20030;-66
2021/06/06 01:58:59;;;;;;;12.52;7.38;;;;;;;;;;4985828;28;20018;-67
2021/06/06 02:01:26;;;;;;;11.95;7.03;;;;;;;;;;4987016;28;20633;-66
2021/06/06 02:03:53;;;;;;;13.82;7.00;;;;;;;;;;4986090;28;20056;-66
2021/06/06 02:06:21;;;;;;;12.77;6.95;;;;;;;;;;4993668;28;20065;-66
2021/06/06 02:08:47;;;;;;;14.18;7.72;;;;;;;;;;4983940;28;20563;-66
2021/06/06 02:11:19;;;;;;;11.73;6.90;;;;;;;;;;4984583;28;20080;-67
2021/06/06 02:13:50;;;;;;;11.38;7.18;;;;;;;;;;4985665;28;20041;-67
2021/06/06 02:16:17;;;;;;;12.10;6.75;;;;;;;;;;4987391;28;20260;-66
2021/06/06 02:18:44;;;;;;;13.63;6.85;;;;;;;;;;4985785;28;20030;-66
2021/06/06 02:21:10;;;;;;;13.15;6.38;;;;;;;;;;4986685;28;20033;-67
2021/06/06 02:23:38;;;;;;;11.77;7.25;;;;;;;;;;4987209;28;20039;-67
2021/06/06 02:26:07;;;;;;;13.05;7.07;;;;;;;;;;4986473;28;20443;-66
2021/06/06 02:28:41;;;;;;;10.80;7.28;;;;;;;;;;4985630;28;20134;-66
2021/06/06 02:31:16;;;;;;;12.93;7.10;;;;;;;;;;4986683;28;20039;-66
2021/06/06 02:33:42;;;;;;;13.20;6.45;;;;;;;;;;4985241;28;20030;-66
2021/06/06 02:36:11;;;;;;;13.07;6.57;;;;;;;;;;4987000;28;20029;-66
2021/06/06 02:39:06;;;;;;;11.23;6.03;;;;;;;;;;4986961;28;20034;-66
2021/06/06 02:41:34;;;;;;;13.25;6.15;;;;;;;;;;4997697;28;20054;-66
2021/06/06 02:44:06;;;;;;;12.07;6.28;;;;;;;;;;4995054;28;20022;-66
2021/06/06 02:46:33;;;;;;;12.70;6.10;;;;;;;;;;4988669;28;20030;-67
2021/06/06 02:49:04;;;;;;;11.70;6.88;;;;;;;;;;4991110;28;20030;-66
2021/06/06 02:51:32;;;;;;;11.68;6.63;;;;;;;;;;4989524;28;20042;-67
2021/06/06 02:54:04;;;;;;;11.18;6.63;;;;;;;;;;4989239;28;20080;-66
2021/06/06 02:56:35;;;;;;;10.73;6.30;;;;;;;;;;4989032;28;20034;-67
2021/06/06 02:59:04;;;;;;;13.00;7.57;;;;;;;;;;4994976;28;20089;-67
2021/06/06 03:01:32;;;;;;;15.10;6.60;;;;;;;;;;4987230;28;20045;-66
2021/06/06 03:04:00;;;;;;;11.75;6.32;;;;;;;;;;4989605;28;20521;-67
2021/06/06 03:06:38;;;;;;;11.57;7.03;;;;;;;;;;4989452;28;20042;-67
2021/06/06 03:09:05;;;;;;;15.50;6.25;;;;;;;;;;4996932;28;20046;-66
2021/06/06 03:11:31;;;;;;;10.10;6.07;;;;;;;;;;4989762;28;20058;-66
2021/06/06 03:13:59;;;;;;;12.32;6.20;;;;;;;;;;4987843;28;20035;-67
2021/06/06 03:16:25;;;;;;;12.10;6.80;;;;;;;;;;4989966;28;20105;-66
2021/06/06 03:18:54;;;;;;;14.18;6.90;;;;;;;;;;4989140;28;20034;-66
2021/06/06 03:21:25;;;;;;;11.18;6.65;;;;;;;;;;4991244;28;20025;-66
2021/06/06 03:23:58;;;;;;;11.70;6.10;;;;;;;;;;4990105;28;20038;-66
2021/06/06 03:26:24;;;;;;;10.02;6.13;;;;;;;;;;4986628;28;20099;-67
2021/06/06 03:28:50;;;;;;;11.00;5.88;;;;;;;;;;4990377;28;20065;-67
2021/06/06 03:31:28;;;;;;;11.85;5.97;;;;;;;;;;4988418;28;20098;-66
2021/06/06 03:33:59;;;;;;;11.95;5.93;;;;;;;;;;4988851;28;20042;-66
2021/06/06 03:36:36;;;;;;;9.70;5.75;;;;;;;;;;4983685;28;20030;-66
2021/06/06 03:39:05;;;;;;;11.98;5.85;;;;;;;;;;4989853;28;20028;-66
2021/06/06 03:41:31;;;;;;;10.85;5.30;;;;;;;;;;4988887;28;20026;-67
2021/06/06 03:43:57;;;;;;;10.98;6.53;;;;;;;;;;4986125;28;20041;-66
2021/06/06 03:46:24;;;;;;;10.95;5.47;;;;;;;;;;4987218;28;20037;-67
2021/06/06 03:48:50;;;;;;;12.57;5.88;;;;;;;;;;4987388;28;20069;-66
2021/06/06 03:51:17;;;;;;;11.25;6.28;;;;;;;;;;4988464;28;20038;-67
2021/06/06 03:53:43;;;;;;;11.32;6.30;;;;;;;;;;4987327;28;20022;-66
2021/06/06 03:56:10;;;;;;;11.38;6.60;;;;;;;;;;4990740;28;20520;-66
2021/06/06 03:58:36;;;;;;;9.65;6.53;;;;;;;;;;4986253;28;20026;-66
2021/06/06 04:01:03;;;;;;;11.75;6.60;;;;;;;;;;4985317;28;20039;-66
2021/06/06 04:03:29;;;;;;;11.73;6.65;;;;;;;;;;4987731;28;20071;-66
2021/06/06 04:05:56;;;;;;;12.50;7.78;;;;;;;;;;4990152;28;20031;-66
2021/06/06 04:08:22;;;;;;;14.55;8.48;;;;;;;;;;4987477;28;21551;-66
2021/06/06 04:10:49;;;;;;;14.32;7.97;;;;;;;;;;4988671;28;20042;-66
2021/06/06 04:13:15;;;;;;;12.27;8.02;;;;;;;;;;4988719;28;20027;-67
2021/06/06 04:15:42;;;;;;;12.98;8.02;;;;;;;;;;4990042;28;20036;-66
2021/06/06 04:18:12;;;;;;;12.43;7.30;;;;;;;;;;4987463;28;20451;-66
2021/06/06 04:20:38;;;;;;;13.52;7.13;;;;;;;;;;4994598;28;20114;-66
2021/06/06 04:23:04;;;;;;;13.50;7.63;;;;;;;;;;4989248;28;20030;-66
2021/06/06 04:25:30;;;;;;;12.18;7.50;;;;;;;;;;4986220;28;20071;-66
2021/06/06 04:27:56;;;;;;;12.93;7.78;;;;;;;;;;4987186;28;20035;-66
2021/06/06 04:30:23;;;;;;;16.05;8.65;;;;;;;;;;4987455;28;20447;-66
2021/06/06 04:32:49;;;;;;;17.38;8.55;;;;;;;;;;4984412;28;20052;-66
2021/06/06 04:35:16;;;;;;;14.52;9.90;;;;;;;;;;4985338;28;20075;-66
2021/06/06 04:37:42;;;;;;;13.32;8.43;;;;;;;;;;4987994;28;20026;-66
2021/06/06 04:40:09;;;;;;;14.52;8.75;;;;;;;;;;4986943;28;20512;-66
2021/06/06 04:42:36;;;;;;;14.18;8.80;;;;;;;;;;4988647;28;20026;-66
2021/06/06 04:45:02;;;;;;;16.60;10.00;;;;;;;;;;4986892;28;20129;-66
2021/06/06 04:47:29;;;;;;;17.13;9.95;;;;;;;;;;4987461;28;20026;-66
2021/06/06 04:49:55;;;;;;;17.10;10.20;;;;;;;;;;4988618;28;20026;-66
2021/06/06 04:52:21;;;;;;;14.85;9.68;;;;;;;;;;4988278;28;20022;-66
2021/06/06 04:54:47;;;;;;;14.57;9.07;;;;;;;;;;4994296;28;20055;-67
2021/06/06 04:57:13;;;;;;;16.23;8.77;;;;;;;;;;4987276;28;20038;-66
2021/06/06 04:59:39;;;;;;;15.80;9.57;;;;;;;;;;4987030;28;20137;-67
2021/06/06 05:02:09;;;;;;;16.50;9.75;;;;;;;;;;4988450;28;20035;-67
2021/06/06 05:04:35;;;;;;;16.25;8.77;;;;;;;;;;4986355;28;20080;-66
2021/06/06 05:07:01;;;;;;;19.67;10.43;;;;;;;;;;4986044;28;20668;-66
2021/06/06 05:09:27;;;;;;;13.50;9.23;;;;;;;;;;4988962;28;20030;-67
2021/06/06 05:11:53;;;;;;;17.85;11.13;;;;;;;;;;4993577;28;20529;-67
2021/06/06 05:14:19;;;;;;;20.90;10.13;;;;;;;;;;4987725;28;20038;-67
2021/06/06 05:16:45;;;;;;;12.68;9.30;;;;;;;;;;4994161;28;20034;-67
2021/06/06 05:19:11;;;;;;;14.82;9.30;;;;;;;;;;4987688;28;20489;-67
2021/06/06 05:21:38;;;;;;;21.80;9.27;;;;;;;;;;4995987;28;20079;-67
2021/06/06 05:24:05;;;;;;;14.60;9.00;;;;;;;;;;4994045;28;20084;-67
2021/06/06 05:26:31;;;;;;;14.38;9.52;;;;;;;;;;4998108;28;20086;-67
2021/06/06 05:28:57;;;;;;;13.52;9.23;;;;;;;;;;4987649;28;20027;-67
2021/06/06 05:31:23;;;;;;;12.85;8.63;;;;;;;;;;4984668;28;20039;-67
2021/06/06 05:33:50;;;;;;;14.10;9.05;;;;;;;;;;4996555;28;20116;-67
2021/06/06 05:36:16;;;;;;;17.45;9.45;;;;;;;;;;5001574;28;20056;-67
2021/06/06 05:38:42;;;;;;;17.13;10.57;;;;;;;;;;4989379;28;21082;-67
2021/06/06 05:41:09;;;;;;;17.73;10.77;;;;;;;;;;4997621;28;20037;-67
2021/06/06 05:43:35;;;;;;;17.80;10.75;;;;;;;;;;4982629;28;20045;-67
2021/06/06 05:46:01;;;;;;;16.45;10.77;;;;;;;;;;4989278;28;20038;-67
2021/06/06 05:48:28;;;;;;;28.05;12.40;;;;;;;;;;4977997;28;20420;-67
2021/06/06 05:50:57;;;;;;;19.20;11.23;;;;;;;;;;4983457;28;20034;-66
2021/06/06 05:53:23;;;;;;;22.15;12.00;;;;;;;;;;4986103;28;20022;-66
2021/06/06 05:55:49;;;;;;;18.17;11.30;;;;;;;;;;4984514;28;20026;-66
2021/06/06 05:58:15;;;;;;;16.35;9.93;;;;;;;;;;4983579;28;20022;-66
2021/06/06 06:00:43;;;;;;;23.25;11.25;;;;;;;;;;4982635;28;20043;-67
2021/06/06 06:03:09;;;;;;;17.15;10.10;;;;;;;;;;4980659;28;20050;-66
2021/06/06 06:05:36;;;;;;;19.42;9.70;;;;;;;;;;4986371;28;20049;-66
2021/06/06 06:08:12;;;;;;;18.30;10.32;;;;;;;;;;4986066;28;20519;-67
2021/06/06 06:10:38;;;;;;;14.38;9.00;;;;;;;;;;4982355;28;20424;-66
2021/06/06 06:13:04;;;;;;;16.73;10.02;;;;;;;;;;4982802;28;20030;-66
2021/06/06 06:15:30;;;;;;;16.70;9.10;;;;;;;;;;4986903;28;20057;-66
2021/06/06 06:17:56;;;;;;;15.45;8.38;;;;;;;;;;4980429;28;20049;-67
2021/06/06 06:20:22;;;;;;;16.58;9.10;;;;;;;;;;4986999;28;20036;-66
2021/06/06 06:22:49;;;;;;;14.20;8.20;;;;;;;;;;4987954;28;20027;-66
2021/06/06 06:25:16;;;;;;;14.85;8.35;;;;;;;;;;4990477;28;20033;-66
2021/06/06 06:27:43;;;;;;;15.93;8.02;;;;;;;;;;4978608;28;20071;-66
2021/06/06 06:30:10;;;;;;;16.63;8.00;;;;;;;;;;4990561;28;20103;-66
2021/06/06 06:32:37;;;;;;;14.75;8.75;;;;;;;;;;4987787;28;20401;-66
2021/06/06 06:35:03;;;;;;;14.05;7.43;;;;;;;;;;4986034;28;20027;-66
2021/06/06 06:37:29;;;;;;;19.20;7.97;;;;;;;;;;4979488;28;20065;-66
2021/06/06 06:39:55;;;;;;;13.40;7.13;;;;;;;;;;4981680;28;20025;-66
2021/06/06 06:42:21;;;;;;;14.77;7.22;;;;;;;;;;4996964;28;20527;-66
2021/06/06 06:44:47;;;;;;;13.98;8.40;;;;;;;;;;4984036;28;20121;-66
2021/06/06 06:47:14;;;;;;;12.80;8.15;;;;;;;;;;4985876;28;20023;-67
2021/06/06 06:49:41;;;;;;;15.18;8.93;;;;;;;;;;4993965;28;20654;-65
2021/06/06 06:52:07;;;;;;;13.90;7.32;;;;;;;;;;4990961;28;20041;-65
2021/06/06 06:54:33;;;;;;;16.00;8.50;;;;;;;;;;4988177;28;20022;-66
2021/06/06 06:56:59;;;;;;;13.30;7.50;;;;;;;;;;4992970;28;20022;-65
2021/06/06 06:59:28;;;;;;;14.00;7.78;;;;;;;;;;4990546;28;20023;-66
2021/06/06 07:01:55;;;;;;;14.63;7.43;;;;;;;;;;4986963;28;20524;-66
2021/06/06 07:04:22;;;;;;;10.45;5.45;;;;;;;;;;4991950;28;20081;-66
2021/06/06 07:06:52;;;;;;;8.65;5.00;;;;;;;;;;4984525;28;20168;-66
2021/06/06 07:09:19;;;;;;;11.48;5.80;;;;;;;;;;4986752;28;20057;-65
2021/06/06 07:11:45;;;;;;;10.75;4.63;;;;;;;;;;4987171;28;20041;-65
2021/06/06 07:14:11;;;;;;;8.02;4.72;;;;;;;;;;4989811;28;20053;-65
2021/06/06 07:16:38;;;;;;;15.20;5.30;;;;;;;;;;4986133;28;20029;-65
2021/06/06 07:19:05;;;;;;;13.73;5.28;;;;;;;;;;4984411;28;20023;-65
2021/06/06 07:21:31;;;;;;;8.85;4.07;;;;;;;;;;4987620;28;20026;-65
2021/06/06 07:23:57;;;;;;;10.40;5.13;;;;;;;;;;4986853;28;20038;-64
2021/06/06 07:26:26;;;;;;;10.20;4.65;;;;;;;;;;4983311;28;20041;-64
2021/06/06 07:28:53;;;;;;;9.70;4.32;;;;;;;;;;4982112;28;20023;-65
2021/06/06 07:31:19;;;;;;;9.35;4.50;;;;;;;;;;4981362;28;20515;-65
2021/06/06 07:33:46;;;;;;;14.15;4.43;;;;;;;;;;5010919;28;20037;-65
2021/06/06 07:36:14;;;;;;;12.43;4.90;;;;;;;;;;4999967;28;20035;-65
2021/06/06 07:38:40;;;;;;;10.73;3.88;;;;;;;;;;4986662;28;20058;-64
2021/06/06 07:41:07;;;;;;;10.30;4.57;;;;;;;;;;4998059;28;20571;-65
2021/06/06 07:43:33;;;;;;;8.80;3.78;;;;;;;;;;4989918;28;20022;-65
2021/06/06 07:46:00;;;;;;;8.43;3.97;;;;;;;;;;4990122;28;20027;-65
2021/06/06 07:48:26;;;;;;;7.88;3.78;;;;;;;;;;4986023;28;20583;-65
2021/06/06 07:50:52;;;;;;;7.32;3.53;;;;;;;;;;4992449;28;20018;-64
2021/06/06 07:53:19;;;;;;;6.65;3.40;;;;;;;;;;4989231;28;20022;-65
2021/06/06 07:55:46;;;;;;;5.28;2.85;;;;;;;;;;4988022;28;20031;-64
2021/06/06 07:58:16;;;;;;;8.23;3.50;;;;;;;;;;4986860;28;20031;-65
2021/06/06 08:00:43;;;;;;;5.97;2.88;;;;;;;;;;4976479;28;20046;-64
2021/06/06 08:03:09;;;;;;;10.50;3.47;;;;;;;;;;4990228;28;20162;-65
2021/06/06 08:05:36;;;;;;;8.25;3.53;;;;;;;;;;4990538;28;20542;-65
2021/06/06 08:08:03;;;;;;;6.10;3.00;;;;;;;;;;4987726;28;20030;-66
2021/06/06 08:10:29;;;;;;;9.60;3.65;;;;;;;;;;4991956;28;20084;-64
2021/06/06 08:12:55;;;;;;;7.03;3.15;;;;;;;;;;4985208;28;20072;-65
2021/06/06 08:15:23;;;;;;;8.45;3.38;;;;;;;;;;4993117;28;20031;-64
2021/06/06 08:17:49;;;;;;;7.07;3.03;;;;;;;;;;4986318;28;20109;-64
2021/06/06 08:20:18;;;;;;;7.38;3.15;;;;;;;;;;4989636;28;20030;-65
2021/06/06 08:22:44;;;;;;;8.63;3.45;;;;;;;;;;4990147;28;20038;-65
2021/06/06 08:25:11;;;;;;;13.27;3.72;;;;;;;;;;4990322;28;21047;-65
2021/06/06 08:27:38;;;;;;;10.50;3.03;;;;;;;;;;4989290;28;20022;-64
2021/06/06 08:30:10;;;;;;;10.23;3.35;;;;;;;;;;4990208;28;20120;-65
2021/06/06 08:32:36;;;;;;;90.65;9.63;;;;;;;;;;4989101;28;20026;-65
2021/06/06 08:35:02;;;;;;;10.68;2.25;;;;;;;;;;4988312;28;20516;-65
2021/06/06 08:37:29;;;;;;;6.95;3.42;;;;;;;;;;4984825;28;20437;-65
2021/06/06 08:39:55;;;;;;;7.72;2.42;;;;;;;;;;4986680;28;20156;-64
2021/06/06 08:42:23;;;;;;;4.28;2.25;;;;;;;;;;4989122;28;20053;-65
2021/06/06 08:44:57;;;;;;;6.32;2.03;;;;;;;;;;4989547;28;20088;-65
2021/06/06 08:47:27;;;;;;;7.50;1.80;;;;;;;;;;4984629;28;20485;-65
2021/06/06 08:49:55;;;;;;;7.43;2.40;;;;;;;;;;4990173;28;20023;-65
2021/06/06 08:52:21;;;;;;;3.47;1.80;;;;;;;;;;4987964;28;20034;-65
2021/06/06 08:55:00;;;;;;;7.05;1.90;;;;;;;;;;4989311;28;20505;-65
2021/06/06 08:57:36;;;;;;;4.72;2.15;;;;;;;;;;4985183;28;20057;-64
2021/06/06 09:00:07;;;;;;;6.82;2.10;;;;;;;;;;4986123;28;20042;-65
2021/06/06 09:02:38;;;;;;;4.78;1.60;;;;;;;;;;4988757;28;20023;-65
2021/06/06 09:05:08;;;;;;;4.10;1.15;;;;;;;;;;4985008;28;20027;-65
2021/06/06 09:07:36;;;;;;;4.13;1.40;;;;;;;;;;4987901;28;20026;-65
2021/06/06 09:10:10;;;;;;;4.68;1.75;;;;;;;;;;4983315;28;20026;-65
2021/06/06 09:12:36;;;;;;;4.45;1.63;;;;;;;;;;4979807;28;20041;-65
2021/06/06 09:15:04;;;;;;;3.85;1.52;;;;;;;;;;4979394;28;20033;-65
2021/06/06 09:17:39;;;;;;;5.97;1.65;;;;;;;;;;4981718;28;20029;-65
2021/06/06 09:20:07;;;;;;;4.13;1.33;;;;;;;;;;4988170;28;20548;-65
2021/06/06 09:22:39;;;;;;;5.03;1.33;;;;;;;;;;4976108;28;20487;-65
2021/06/06 09:25:27;;;;;;;5.18;1.42;;;;;;;;;;4980379;28;20546;-65
2021/06/06 09:28:12;;;;;;;3.90;1.40;;;;;;;;;;4978958;28;20023;-64
2021/06/06 09:30:40;;;;;;;2.42;1.10;;;;;;;;;;4987724;28;20037;-66
2021/06/06 09:33:26;;;;;;;22.80;3.25;;;;;;;;;;4982082;28;20034;-65
2021/06/06 09:35:54;;;;;;;33.17;14.35;;;;;;;;;;4960902;28;20046;-65
2021/06/06 09:38:29;;;;;;;5.82;1.98;;;;;;;;;;4976467;28;20167;-67
2021/06/06 09:40:56;;;;;;;10.65;3.42;;;;;;;;;;4977255;28;20015;-67
2021/06/06 09:43:30;;;;;;;61.85;44.08;;;;;;;;;;4979849;28;20035;-66
2021/06/06 09:46:16;;;;;;;4.03;1.75;;;;;;;;;;4980363;28;20205;-67
2021/06/06 09:48:44;;;;;;;3.92;1.35;;;;;;;;;;4976786;28;20023;-66
2021/06/06 09:51:10;;;;;;;2.60;1.30;;;;;;;;;;4977765;28;20046;-66
2021/06/06 09:53:37;;;;;;;6.32;1.70;;;;;;;;;;4981808;28;20065;-65
2021/06/06 09:56:06;;;;;;;3.42;1.10;;;;;;;;;;4987768;28;21447;-65
2021/06/06 09:58:33;;;;;;;2.95;1.48;;;;;;;;;;4976025;28;20022;-66
2021/06/06 10:01:06;;;;;;;4.78;1.38;;;;;;;;;;4981914;28;20061;-66
2021/06/06 10:03:37;;;;;;;2.58;1.02;;;;;;;;;;4978604;28;20026;-65
2021/06/06 10:06:32;;;;;;;5.00;1.17;;;;;;;;;;4980793;28;20034;-65
2021/06/06 10:09:07;;;;;;;4.10;1.70;;;;;;;;;;4972998;28;20047;-66
2021/06/06 10:11:40;;;;;;;4.78;1.35;;;;;;;;;;4981271;28;20125;-65
2021/06/06 10:14:07;;;;;;;3.33;1.20;;;;;;;;;;4980230;28;20171;-67
2021/06/06 10:16:39;;;;;;;5.57;1.30;;;;;;;;;;4975895;28;20027;-65
2021/06/06 10:19:11;;;;;;;2.85;0.88;;;;;;;;;;4980229;28;20014;-66
2021/06/06 10:21:37;;;;;;;6.20;1.83;;;;;;;;;;4980798;28;20510;-65
2021/06/06 10:24:10;;;;;;;2.45;0.80;;;;;;;;;;4986779;28;20027;-65
2021/06/06 10:26:41;;;;;;;2.45;1.10;;;;;;;;;;4973307;28;20719;-65
2021/06/06 10:29:22;;;;;;;3.22;1.00;;;;;;;;;;4986551;28;20385;-66
2021/06/06 10:31:49;;;;;;;2.97;1.00;;;;;;;;;;4988817;28;20049;-66
2021/06/06 10:34:21;;;;;;;3.33;1.30;;;;;;;;;;4985368;28;20026;-65
2021/06/06 10:36:47;;;;;;;3.30;0.98;;;;;;;;;;4986319;28;20022;-67
2021/06/06 10:39:18;;;;;;;2.03;0.90;;;;;;;;;;4992774;28;20079;-66
2021/06/06 10:42:00;;;;;;;8.07;1.47;;;;;;;;;;4977559;28;20103;-65
2021/06/06 10:44:28;;;;;;;3.35;0.93;;;;;;;;;;4975483;28;20030;-65
2021/06/06 10:47:11;;;;;;;1.63;0.68;;;;;;;;;;4976808;28;20772;-66
2021/06/06 10:50:08;;;;;;;3.47;1.13;;;;;;;;;;4979518;28;20076;-65
2021/06/06 10:52:38;;;;;;;2.72;0.60;;;;;;;;;;4975848;28;20038;-66
2021/06/06 10:55:23;;;;;;;4.35;0.95;;;;;;;;;;4980749;28;20026;-65
2021/06/06 10:57:49;;;;;;;2.47;0.77;;;;;;;;;;4969330;28;20069;-65
2021/06/06 11:00:25;;;;;;;2.40;0.82;;;;;;;;;;4975356;28;20055;-64
2021/06/06 11:03:03;;;;;;;3.38;1.13;;;;;;;;;;4984497;28;20131;-65
2021/06/06 11:05:47;;;;;;;4.13;0.90;;;;;;;;;;4978743;28;20026;-65
2021/06/06 11:08:26;;;;;;;2.55;0.80;;;;;;;;;;4977296;28;20018;-65
2021/06/06 11:10:52;;;;;;;3.13;1.13;;;;;;;;;;4980264;28;20031;-65
2021/06/06 11:13:32;;;;;;;4.45;1.05;;;;;;;;;;4985083;28;20608;-66
2021/06/06 11:16:06;;;;;;;3.10;0.90;;;;;;;;;;4988890;28;20030;-65
2021/06/06 11:18:43;;;;;;;2.05;0.77;;;;;;;;;;4980320;28;20485;-65
2021/06/06 11:21:09;;;;;;;1.80;0.73;;;;;;;;;;4982865;28;20031;-65
2021/06/06 11:23:37;;;;;;;1.90;0.75;;;;;;;;;;4983973;28;20409;-65
2021/06/06 11:26:21;;;;;;;1.65;0.80;;;;;;;;;;4985053;28;20130;-64
2021/06/06 11:28:48;;;;;;;3.47;0.75;;;;;;;;;;4981225;28;20080;-64
2021/06/06 11:31:23;;;;;;;2.22;0.90;;;;;;;;;;4988411;28;20035;-64
2021/06/06 11:33:55;;;;;;;2.83;0.90;;;;;;;;;;4986158;28;20547;-65
2021/06/06 11:36:32;;;;;;;2.03;0.75;;;;;;;;;;4988090;28;20027;-64
2021/06/06 11:39:09;;;;;;;2.83;0.90;;;;;;;;;;5003873;28;20023;-65
2021/06/06 11:41:38;;;;;;;1.63;0.70;;;;;;;;;;4984013;28;20031;-65
2021/06/06 11:44:17;;;;;;;2.25;1.00;;;;;;;;;;4991011;28;20034;-65
2021/06/06 11:47:06;;;;;;;1.85;0.88;;;;;;;;;;4985418;28;20367;-65
2021/06/06 11:49:46;;;;;;;1.45;0.77;;;;;;;;;;4988859;28;20701;-65
2021/06/06 11:52:34;;;;;;;2.42;0.80;;;;;;;;;;4987495;28;20429;-64
2021/06/06 11:55:04;;;;;;;2.70;1.05;;;;;;;;;;4990166;28;20019;-65
2021/06/06 11:57:36;;;;;;;2.28;0.68;;;;;;;;;;4984458;28;20022;-65
2021/06/06 12:00:17;;;;;;;4.35;0.90;;;;;;;;;;4990030;28;20121;-65
2021/06/06 12:02:43;;;;;;;2.88;0.95;;;;;;;;;;4991714;28;20485;-64
2021/06/06 12:05:25;;;;;;;2.42;0.80;;;;;;;;;;4983857;28;20022;-64
2021/06/06 12:07:52;;;;;;;2.13;0.90;;;;;;;;;;4979556;28;20027;-64
2021/06/06 12:10:23;;;;;;;3.72;1.15;;;;;;;;;;4989266;28;20030;-64
2021/06/06 12:12:51;;;;;;;1.98;0.85;;;;;;;;;;4989916;28;20037;-65
2021/06/06 12:15:25;;;;;;;3.13;0.70;;;;;;;;;;5001938;28;20078;-64
2021/06/06 12:18:09;;;;;;;1.92;0.80;;;;;;;;;;4995837;28;20031;-65
2021/06/06 12:20:36;;;;;;;2.50;0.90;;;;;;;;;;4991291;28;20026;-65
2021/06/06 12:23:09;;;;;;;2.13;0.85;;;;;;;;;;4989540;28;20018;-64
2021/06/06 12:25:36;;;;;;;1.50;0.80;;;;;;;;;;4987082;28;20447;-65
2021/06/06 12:28:21;;;;;;;2.30;1.00;;;;;;;;;;4988990;28;20037;-64
2021/06/06 12:30:47;;;;;;;2.90;0.90;;;;;;;;;;4993055;28;20029;-65
2021/06/06 12:33:19;;;;;;;3.00;1.10;;;;;;;;;;4998111;28;20041;-66
2021/06/06 12:35:50;;;;;;;3.15;0.77;;;;;;;;;;4983437;28;20101;-65
2021/06/06 12:38:16;;;;;;;3.75;0.93;;;;;;;;;;4994038;28;20026;-64
2021/06/06 12:40:43;;;;;;;2.10;1.10;;;;;;;;;;4990035;28;20497;-65
2021/06/06 12:43:11;;;;;;;4.53;1.13;;;;;;;;;;5000248;28;20037;-64
2021/06/06 12:45:40;;;;;;;3.20;1.10;;;;;;;;;;4992864;28;20027;-65
2021/06/06 12:48:09;;;;;;;1.80;0.95;;;;;;;;;;4994098;28;20057;-65
2021/06/06 12:50:38;;;;;;;4.70;1.23;;;;;;;;;;4988331;28;20130;-65
2021/06/06 12:53:16;;;;;;;2.50;1.05;;;;;;;;;;4994159;28;20030;-66
2021/06/06 12:55:44;;;;;;;3.70;1.10;;;;;;;;;;4989681;28;20121;-64
2021/06/06 12:58:16;;;;;;;6.63;1.25;;;;;;;;;;5002835;28;20121;-65
2021/06/06 13:00:48;;;;;;;2.67;1.17;;;;;;;;;;4998553;28;20065;-65
2021/06/06 13:03:27;;;;;;;3.13;0.90;;;;;;;;;;4993887;28;20493;-65
2021/06/06 13:05:55;;;;;;;3.42;1.30;;;;;;;;;;4994932;28;20026;-65
2021/06/06 13:08:23;;;;;;;4.78;1.50;;;;;;;;;;4991871;28;20111;-65
2021/06/06 13:10:54;;;;;;;2.97;1.10;;;;;;;;;;4988333;28;20604;-64
2021/06/06 13:13:26;;;;;;;2.80;1.20;;;;;;;;;;4988437;28;20037;-65
2021/06/06 13:15:52;;;;;;;5.88;1.45;;;;;;;;;;4991003;28;20046;-65
2021/06/06 13:18:21;;;;;;;4.28;1.20;;;;;;;;;;4986306;28;20019;-65
2021/06/06 13:20:50;;;;;;;3.88;1.30;;;;;;;;;;4984663;28;20022;-65
2021/06/06 13:23:28;;;;;;;4.28;1.55;;;;;;;;;;4985569;28;20070;-64
2021/06/06 13:25:55;;;;;;;3.15;1.20;;;;;;;;;;4991138;28;20489;-66
2021/06/06 13:28:21;;;;;;;3.13;1.30;;;;;;;;;;4985466;28;20022;-64
2021/06/06 13:30:49;;;;;;;4.80;1.08;;;;;;;;;;4990246;28;20030;-65
2021/06/06 13:33:16;;;;;;;3.30;1.20;;;;;;;;;;4989221;28;20133;-65
2021/06/06 13:35:42;;;;;;;4.10;1.63;;;;;;;;;;4988968;28;20517;-65
2021/06/06 13:38:09;;;;;;;4.20;1.40;;;;;;;;;;4986026;28;20026;-64
2021/06/06 13:40:37;;;;;;;5.45;1.00;;;;;;;;;;4984486;28;20051;-65
2021/06/06 13:43:03;;;;;;;2.65;1.30;;;;;;;;;;4985555;28;20102;-66
2021/06/06 13:45:30;;;;;;;4.32;1.35;;;;;;;;;;4988681;28;20510;-65
2021/06/06 13:47:57;;;;;;;4.85;1.40;;;;;;;;;;4985456;28;20087;-65
2021/06/06 13:50:24;;;;;;;4.90;1.52;;;;;;;;;;4988448;28;20027;-65
2021/06/06 13:52:52;;;;;;;4.72;1.50;;;;;;;;;;4992512;28;20033;-65
2021/06/06 13:55:20;;;;;;;2.65;1.27;;;;;;;;;;5001547;28;20497;-65
2021/06/06 13:57:47;;;;;;;3.53;1.63;;;;;;;;;;4986873;28;20029;-65
2021/06/06 14:00:15;;;;;;;6.35;1.40;;;;;;;;;;4991027;28;20043;-65
2021/06/06 14:02:46;;;;;;;5.55;1.42;;;;;;;;;;4994243;28;20035;-65
2021/06/06 14:05:14;;;;;;;2.75;1.50;;;;;;;;;;4979236;28;20030;-65
2021/06/06 14:07:40;;;;;;;4.30;1.63;;;;;;;;;;4989180;28;20041;-64
2021/06/06 14:10:08;;;;;;;4.20;1.50;;;;;;;;;;4991225;28;20030;-65
2021/06/06 14:12:37;;;;;;;6.88;1.88;;;;;;;;;;4984724;28;20027;-65
2021/06/06 14:15:03;;;;;;;4.25;1.50;;;;;;;;;;4985288;28;20073;-66
2021/06/06 14:17:29;;;;;;;5.50;1.25;;;;;;;;;;4983124;28;20039;-65
2021/06/06 14:19:55;;;;;;;3.78;1.58;;;;;;;;;;4988383;28;20030;-65
2021/06/06 14:22:21;;;;;;;5.80;1.50;;;;;;;;;;4988909;28;20030;-64
2021/06/06 14:24:47;;;;;;;4.05;1.48;;;;;;;;;;5002844;28;20085;-64
2021/06/06 14:27:13;;;;;;;5.25;1.85;;;;;;;;;;4989878;28;20393;-65
2021/06/06 14:29:41;;;;;;;3.70;1.58;;;;;;;;;;4999770;28;20099;-65
2021/06/06 14:32:07;;;;;;;7.82;1.65;;;;;;;;;;4995653;28;20030;-65
2021/06/06 14:34:33;;;;;;;5.55;1.70;;;;;;;;;;5018428;28;20457;-64
2021/06/06 14:36:59;;;;;;;7.95;1.30;;;;;;;;;;4984726;28;20030;-65
2021/06/06 14:39:26;;;;;;;5.28;1.55;;;;;;;;;;4987229;28;20030;-65
2021/06/06 14:41:52;;;;;;;6.82;2.33;;;;;;;;;;4973582;28;20077;-64
2021/06/06 14:44:19;;;;;;;8.25;1.42;;;;;;;;;;4980361;28;20034;-65
2021/06/06 14:46:45;;;;;;;4.20;1.73;;;;;;;;;;4984959;28;20555;-65
2021/06/06 14:49:12;;;;;;;5.35;1.83;;;;;;;;;;4987916;28;20031;-65